Time;durP1;ratioP1;P1;durP2;ratioP2;P2;SDS_P1;SDS_P2;PMS_P1;PMS_P2;Temp;Humidity;BMP_temperature;BMP_pressure;BME280_temperature;BME280_humidity;BME280_pressure;Samples;Min_cycle;Max_cycle;Signal;HPM_P1;HPM_P2
2022/10/05 04:30:29;;;;;;;;;3.00;3.00;;;;;;;;5969454;22;46234;-67
2022/10/05 04:32:58;;;;;;;;;4.67;4.00;;;;;;;;5038796;28;45297;-66
2022/10/05 04:35:42;;;;;;;;;5.33;4.33;;;;;;;;5036439;28;45517;-66
2022/10/05 04:38:16;;;;;;;;;6.67;6.00;;;;;;;;5032921;28;45512;-66
2022/10/05 04:40:41;;;;;;;;;4.00;4.00;;;;;;;;5042211;28;46217;-66
2022/10/05 04:43:06;;;;;;;;;4.00;3.67;;;;;;;;5041800;28;45372;-66
2022/10/05 04:45:49;;;;;;;;;4.00;4.00;;;;;;;;5040475;28;45783;-66
2022/10/05 04:48:21;;;;;;;;;4.33;4.00;;;;;;;;5028541;28;45455;-66
2022/10/05 04:50:55;;;;;;;;;8.00;4.33;;;;;;;;5041275;28;45367;-67
2022/10/05 04:53:28;;;;;;;;;6.00;4.67;;;;;;;;5040170;28;45445;-67
2022/10/05 04:56:11;;;;;;;;;4.33;4.33;;;;;;;;5031739;28;45550;-67
2022/10/05 04:58:44;;;;;;;;;5.00;5.00;;;;;;;;5033059;28;45416;-66
2022/10/05 05:01:24;;;;;;;;;6.00;3.00;;;;;;;;5041370;28;46360;-67
2022/10/05 05:04:01;;;;;;;;;4.33;4.33;;;;;;;;5036213;28;45606;-67
2022/10/05 05:06:33;;;;;;;;;4.00;4.00;;;;;;;;5037809;28;45335;-67
2022/10/05 05:09:01;;;;;;;;;4.67;4.33;;;;;;;;5039729;28;45435;-67
2022/10/05 05:11:38;;;;;;;;;5.33;3.00;;;;;;;;5040078;28;45815;-66
2022/10/05 05:14:15;;;;;;;;;5.00;5.00;;;;;;;;5038910;28;45203;-66
2022/10/05 05:16:41;;;;;;;;;5.00;4.00;;;;;;;;5030416;28;45482;-67
2022/10/05 05:19:12;;;;;;;;;5.33;5.00;;;;;;;;5038792;28;45479;-67
2022/10/05 05:21:44;;;;;;;;;3.67;3.67;;;;;;;;5041337;28;46134;-67
2022/10/05 05:24:26;;;;;;;;;4.67;4.67;;;;;;;;5041198;28;45498;-67
2022/10/05 05:27:00;;;;;;;;;3.67;3.00;;;;;;;;5041260;28;45293;-67
2022/10/05 05:29:34;;;;;;;;;6.00;6.00;;;;;;;;5039908;28;45527;-68
2022/10/05 05:32:02;;;;;;;;;5.00;5.00;;;;;;;;5034210;28;45522;-67
2022/10/05 05:34:36;;;;;;;;;6.00;5.67;;;;;;;;5040146;28;45299;-68
2022/10/05 05:37:07;;;;;;;;;5.33;5.33;;;;;;;;5031624;28;45417;-68
2022/10/05 05:39:38;;;;;;;;;4.00;4.00;;;;;;;;5025671;28;45354;-67
2022/10/05 05:42:15;;;;;;;;;4.00;4.00;;;;;;;;5033736;28;45416;-67
2022/10/05 05:44:44;;;;;;;;;0.00;0.00;;;;;;;;5028321;28;45454;-67
2022/10/05 05:47:09;;;;;;;;;4.67;4.67;;;;;;;;5025374;28;45309;-67
2022/10/05 05:49:43;;;;;;;;;4.50;4.50;;;;;;;;5027222;28;45490;-67
2022/10/05 05:52:14;;;;;;;;;5.00;4.67;;;;;;;;5033760;28;45621;-67
2022/10/05 05:54:43;;;;;;;;;6.00;6.00;;;;;;;;5036379;28;45478;-67
2022/10/05 05:57:11;;;;;;;;;1.67;1.67;;;;;;;;5040252;28;45264;-64
2022/10/05 05:59:36;;;;;;;;;6.00;6.00;;;;;;;;5031484;28;45688;-68
2022/10/05 06:02:04;;;;;;;;;4.75;4.75;;;;;;;;5035163;28;46857;-68
2022/10/05 06:04:36;;;;;;;;;5.33;5.33;;;;;;;;5031221;28;45590;-67
2022/10/05 06:07:03;;;;;;;;;4.67;4.00;;;;;;;;5036686;28;45299;-67
2022/10/05 06:09:28;;;;;;;;;5.67;5.67;;;;;;;;5039794;28;45487;-67
2022/10/05 06:12:01;;;;;;;;;6.00;6.00;;;;;;;;5038955;28;46917;-67
2022/10/05 06:14:45;;;;;;;;;7.00;6.00;;;;;;;;5040617;28;45390;-68
2022/10/05 06:17:13;;;;;;;;;4.67;4.33;;;;;;;;5031324;28;45458;-68
2022/10/05 06:19:39;;;;;;;;;5.00;4.67;;;;;;;;5031566;28;45401;-67
2022/10/05 06:22:08;;;;;;;;;5.67;3.00;;;;;;;;5039401;28;46062;-66
2022/10/05 06:24:38;;;;;;;;;7.00;5.33;;;;;;;;5040321;28;45481;-67
2022/10/05 06:27:04;;;;;;;;;5.00;5.00;;;;;;;;5036701;28;45305;-67
2022/10/05 06:29:45;;;;;;;;;8.33;6.00;;;;;;;;5033677;28;45371;-68
2022/10/05 06:32:20;;;;;;;;;8.67;6.33;;;;;;;;5032768;28;46292;-68
2022/10/05 06:34:54;;;;;;;;;5.33;3.67;;;;;;;;5032760;28;45519;-68
2022/10/05 06:37:27;;;;;;;;;9.33;5.67;;;;;;;;5034754;28;45529;-67
2022/10/05 06:39:56;;;;;;;;;6.00;5.00;;;;;;;;5039443;28;45292;-69
2022/10/05 06:42:22;;;;;;;;;5.00;5.00;;;;;;;;5040025;28;46289;-68
2022/10/05 06:44:52;;;;;;;;;8.67;6.33;;;;;;;;5039665;28;45342;-69
2022/10/05 06:47:20;;;;;;;;;6.33;6.33;;;;;;;;5040000;28;45326;-69
2022/10/05 06:49:52;;;;;;;;;6.00;5.00;;;;;;;;5039297;28;45284;-68
2022/10/05 06:52:17;;;;;;;;;5.33;5.33;;;;;;;;5036427;28;45347;-68
2022/10/05 06:54:42;;;;;;;;;5.00;5.00;;;;;;;;5027160;28;45320;-70
2022/10/05 06:57:07;;;;;;;;;6.67;5.33;;;;;;;;5039196;28;45364;-69
2022/10/05 06:59:42;;;;;;;;;4.75;4.75;;;;;;;;5037167;28;45885;-69
2022/10/05 07:02:24;;;;;;;;;8.00;5.67;;;;;;;;5033811;28;45530;-70
2022/10/05 07:05:08;;;;;;;;;7.33;6.67;;;;;;;;5027771;28;45424;-69
2022/10/05 07:07:46;;;;;;;;;7.67;6.00;;;;;;;;5037888;28;45422;-70
2022/10/05 07:10:21;;;;;;;;;5.33;5.33;;;;;;;;5036759;28;45756;-70
2022/10/05 07:13:02;;;;;;;;;6.00;6.00;;;;;;;;5030633;28;46213;-69
2022/10/05 07:15:41;;;;;;;;;7.00;7.00;;;;;;;;5033150;28;45588;-69
2022/10/05 07:18:19;;;;;;;;;6.33;6.33;;;;;;;;5036194;28;45281;-69
2022/10/05 07:20:49;;;;;;;;;8.33;6.67;;;;;;;;5029050;28;45494;-69
2022/10/05 07:23:29;;;;;;;;;6.33;6.00;;;;;;;;5035600;28;45386;-69
2022/10/05 07:26:15;;;;;;;;;9.67;5.33;;;;;;;;5030084;28;45402;-69
2022/10/05 07:28:46;;;;;;;;;6.00;6.00;;;;;;;;4985197;28;45493;-69
2022/10/05 07:31:23;;;;;;;;;4.00;4.00;;;;;;;;5035451;28;45304;-69
2022/10/05 07:33:51;;;;;;;;;5.67;5.67;;;;;;;;5034670;28;46198;-69
2022/10/05 07:39:18;;;;;;;;;5.33;5.00;;;;;;;;5034051;28;45654;-70
2022/10/05 07:41:50;;;;;;;;;8.33;5.33;;;;;;;;5034506;28;45448;-69
2022/10/05 07:44:18;;;;;;;;;6.00;6.00;;;;;;;;5026904;28;47123;-69
2022/10/05 07:46:52;;;;;;;;;5.33;5.33;;;;;;;;5034634;28;45566;-69
2022/10/05 07:49:32;;;;;;;;;7.00;7.00;;;;;;;;5037794;28;45356;-69
2022/10/05 07:52:00;;;;;;;;;5.33;4.67;;;;;;;;5027463;28;45603;-69
2022/10/05 07:54:51;;;;;;;;;6.00;6.00;;;;;;;;5034746;28;45481;-69
2022/10/05 07:57:23;;;;;;;;;5.00;5.00;;;;;;;;5033638;28;45431;-69
2022/10/05 08:00:03;;;;;;;;;3.67;3.67;;;;;;;;5025746;28;45241;-69
2022/10/05 08:02:43;;;;;;;;;5.00;4.33;;;;;;;;5032713;28;45541;-69
2022/10/05 08:05:12;;;;;;;;;7.00;5.00;;;;;;;;5031923;28;46275;-69
2022/10/05 08:07:38;;;;;;;;;5.67;4.67;;;;;;;;5027225;28;45343;-68
2022/10/05 08:10:21;;;;;;;;;6.33;5.00;;;;;;;;5031740;28;45402;-69
2022/10/05 08:12:59;;;;;;;;;3.33;3.00;;;;;;;;5032322;28;45660;-69
2022/10/05 08:15:30;;;;;;;;;6.00;5.00;;;;;;;;5034324;28;46918;-69
2022/10/05 08:18:01;;;;;;;;;8.00;6.00;;;;;;;;5035927;28;45493;-68
2022/10/05 08:20:34;;;;;;;;;4.00;3.00;;;;;;;;5036897;28;45466;-69
2022/10/05 08:23:18;;;;;;;;;7.33;5.00;;;;;;;;5033152;28;45512;-69
2022/10/05 08:25:52;;;;;;;;;5.00;5.00;;;;;;;;5008105;28;47270;-69
2022/10/05 08:28:29;;;;;;;;;4.67;4.67;;;;;;;;5036050;28;45684;-69
2022/10/05 08:30:58;;;;;;;;;5.33;4.00;;;;;;;;5031763;28;45629;-69
2022/10/05 08:33:26;;;;;;;;;7.00;4.33;;;;;;;;5027668;28;45539;-69
2022/10/05 08:36:04;;;;;;;;;5.00;4.00;;;;;;;;5035858;28;46337;-69
2022/10/05 08:38:33;;;;;;;;;3.33;3.33;;;;;;;;5032958;28;45332;-69
2022/10/05 08:41:18;;;;;;;;;5.33;5.00;;;;;;;;5036951;28;45661;-69
2022/10/05 08:44:02;;;;;;;;;5.00;5.00;;;;;;;;5012411;28;45583;-69
2022/10/05 08:46:33;;;;;;;;;5.00;5.00;;;;;;;;5030789;28;45434;-70
2022/10/05 08:49:01;;;;;;;;;5.67;5.67;;;;;;;;5034042;28;45581;-69
2022/10/05 08:51:32;;;;;;;;;4.00;4.00;;;;;;;;5036566;28;45393;-69
2022/10/05 08:54:16;;;;;;;;;6.00;4.00;;;;;;;;5036812;28;45364;-69
2022/10/05 08:56:48;;;;;;;;;6.00;6.00;;;;;;;;5030931;28;45378;-69
2022/10/05 08:59:16;;;;;;;;;8.00;8.00;;;;;;;;5028009;28;45598;-70
2022/10/05 09:01:47;;;;;;;;;6.67;6.00;;;;;;;;5036537;28;45558;-69
2022/10/05 09:04:28;;;;;;;;;6.00;5.00;;;;;;;;5024211;28;45320;-69
2022/10/05 09:07:17;;;;;;;;;5.00;5.00;;;;;;;;5036213;28;46139;-68
2022/10/05 09:09:42;;;;;;;;;7.00;7.00;;;;;;;;4984230;28;45439;-69
2022/10/05 09:12:07;;;;;;;;;7.00;7.00;;;;;;;;5035646;28;45609;-69
2022/10/05 09:14:33;;;;;;;;;6.00;6.00;;;;;;;;5035171;28;45525;-67
2022/10/05 09:16:58;;;;;;;;;5.00;5.00;;;;;;;;5029967;28;45470;-69
2022/10/05 09:19:29;;;;;;;;;8.00;5.67;;;;;;;;5039720;28;45368;-69
2022/10/05 09:21:54;;;;;;;;;6.00;3.67;;;;;;;;5033140;28;45391;-69
2022/10/05 09:24:26;;;;;;;;;4.00;4.00;;;;;;;;5034293;28;45578;-69
2022/10/05 09:26:57;;;;;;;;;4.67;4.67;;;;;;;;5029886;28;47006;-69
2022/10/05 09:29:31;;;;;;;;;5.33;4.00;;;;;;;;5035957;28;45490;-70
2022/10/05 09:31:59;;;;;;;;;6.00;5.00;;;;;;;;5038608;28;45357;-70
2022/10/05 09:34:43;;;;;;;;;4.00;3.00;;;;;;;;5034308;28;45597;-68
2022/10/05 09:37:08;;;;;;;;;3.00;3.00;;;;;;;;5036476;28;46798;-69
2022/10/05 09:39:54;;;;;;;;;5.00;4.00;;;;;;;;5037346;28;45411;-69
2022/10/05 09:42:19;;;;;;;;;4.67;4.00;;;;;;;;5040633;28;45308;-68
2022/10/05 09:45:03;;;;;;;;;4.00;4.00;;;;;;;;5036580;28;45769;-69
2022/10/05 09:47:45;;;;;;;;;3.67;3.00;;;;;;;;5038636;28;47161;-69
2022/10/05 09:50:16;;;;;;;;;4.00;4.00;;;;;;;;5038967;28;45497;-69
2022/10/05 09:53:04;;;;;;;;;6.67;5.00;;;;;;;;5038563;28;45312;-69
2022/10/05 09:55:39;;;;;;;;;5.00;3.67;;;;;;;;5039639;28;45328;-69
2022/10/05 09:58:27;;;;;;;;;6.00;5.00;;;;;;;;5036930;28;45494;-68
2022/10/05 10:00:55;;;;;;;;;6.67;4.33;;;;;;;;5029393;28;45455;-68
2022/10/05 10:03:23;;;;;;;;;5.00;3.33;;;;;;;;5028128;28;45644;-68
2022/10/05 10:06:10;;;;;;;;;5.00;5.00;;;;;;;;5023267;28;45382;-67
2022/10/05 10:08:35;;;;;;;;;5.67;3.67;;;;;;;;5033363;28;46305;-68
2022/10/05 10:11:04;;;;;;;;;3.33;3.33;;;;;;;;5039715;28;45353;-68
2022/10/05 10:13:55;;;;;;;;;5.00;5.00;;;;;;;;5031105;28;45442;-68
2022/10/05 10:16:26;;;;;;;;;3.00;3.00;;;;;;;;4996726;28;45463;-65
2022/10/05 10:18:51;;;;;;;;;3.00;3.00;;;;;;;;5036424;28;46118;-65
2022/10/05 10:21:23;;;;;;;;;3.00;3.00;;;;;;;;5038841;28;45546;-68
2022/10/05 10:23:59;;;;;;;;;2.67;2.67;;;;;;;;5035732;28;45482;-68
2022/10/05 10:26:43;;;;;;;;;2.67;2.67;;;;;;;;5037185;28;45590;-68
2022/10/05 10:29:31;;;;;;;;;2.33;2.33;;;;;;;;5040369;28;45326;-68
2022/10/05 10:32:03;;;;;;;;;3.00;3.00;;;;;;;;4994982;28;46823;-68
2022/10/05 10:34:46;;;;;;;;;5.33;4.00;;;;;;;;5029936;28;45209;-68
2022/10/05 10:37:12;;;;;;;;;2.00;2.00;;;;;;;;5033422;28;46490;-70
2022/10/05 10:39:55;;;;;;;;;3.33;3.00;;;;;;;;5037418;28;47144;-70
2022/10/05 10:42:27;;;;;;;;;5.00;3.33;;;;;;;;5038717;28;45791;-68
2022/10/05 10:45:11;;;;;;;;;3.00;3.00;;;;;;;;5037674;28;45623;-69
2022/10/05 10:47:39;;;;;;;;;4.00;3.00;;;;;;;;5025903;28;45770;-69
2022/10/05 10:50:27;;;;;;;;;2.00;2.00;;;;;;;;5034418;28;46336;-69
2022/10/05 10:52:58;;;;;;;;;1.00;1.00;;;;;;;;5038100;28;45319;-69
2022/10/05 10:55:52;;;;;;;;;2.00;2.00;;;;;;;;5038035;28;45482;-70
2022/10/05 10:58:33;;;;;;;;;4.00;3.00;;;;;;;;4965918;28;45692;-69
2022/10/05 11:01:17;;;;;;;;;4.00;4.00;;;;;;;;5035867;28;46244;-69
2022/10/05 11:03:49;;;;;;;;;3.00;2.00;;;;;;;;5031799;28;45452;-69
2022/10/05 11:06:20;;;;;;;;;2.50;2.50;;;;;;;;5035841;28;45484;-69
2022/10/05 11:09:04;;;;;;;;;3.00;2.00;;;;;;;;5036823;28;45405;-69
2022/10/05 11:11:32;;;;;;;;;2.25;2.00;;;;;;;;5033876;28;46551;-69
2022/10/05 11:14:09;;;;;;;;;2.00;1.00;;;;;;;;5027380;28;45431;-69
2022/10/05 11:16:43;;;;;;;;;3.75;2.50;;;;;;;;5033187;28;45447;-69
2022/10/05 11:19:08;;;;;;;;;3.50;2.25;;;;;;;;5037419;28;45517;-70
2022/10/05 11:21:56;;;;;;;;;2.50;2.25;;;;;;;;5032232;28;46022;-69
2022/10/05 11:24:40;;;;;;;;;1.75;1.75;;;;;;;;5032117;28;45513;-69
2022/10/05 11:27:24;;;;;;;;;1.50;1.50;;;;;;;;5030946;28;45765;-68
2022/10/05 11:30:07;;;;;;;;;1.25;1.25;;;;;;;;5037717;28;45685;-68
2022/10/05 11:32:38;;;;;;;;;3.00;1.00;;;;;;;;5038339;28;46336;-68
2022/10/05 11:35:06;;;;;;;;;1.50;1.25;;;;;;;;5031234;28;45213;-68
2022/10/05 11:37:52;;;;;;;;;3.75;3.75;;;;;;;;5037276;28;45450;-69
2022/10/05 11:40:23;;;;;;;;;2.50;2.50;;;;;;;;5019547;28;45625;-69
2022/10/05 11:42:58;;;;;;;;;1.00;1.00;;;;;;;;5017422;28;46085;-69
2022/10/05 11:45:40;;;;;;;;;3.00;3.00;;;;;;;;5028559;28;45221;-69
2022/10/05 11:48:12;;;;;;;;;3.00;3.00;;;;;;;;5028762;28;45269;-69
2022/10/05 11:50:37;;;;;;;;;3.00;3.00;;;;;;;;5035796;28;45520;-69
2022/10/05 11:53:10;;;;;;;;;2.00;2.00;;;;;;;;5033223;28;46181;-71
2022/10/05 11:55:38;;;;;;;;;2.00;2.00;;;;;;;;5037288;28;45528;-71
2022/10/05 11:58:18;;;;;;;;;2.00;1.75;;;;;;;;5044663;28;45350;-69
2022/10/05 12:00:55;;;;;;;;;2.75;1.25;;;;;;;;5033330;28;45881;-67
2022/10/05 12:03:29;;;;;;;;;1.50;1.50;;;;;;;;5030510;28;46108;-69
2022/10/05 12:06:00;;;;;;;;;1.00;1.00;;;;;;;;5027447;28;45344;-70
2022/10/05 12:08:25;;;;;;;;;2.00;2.00;;;;;;;;5027447;28;45328;-69
2022/10/05 12:11:00;;;;;;;;;4.00;2.00;;;;;;;;5037786;28;45351;-69
2022/10/05 12:13:34;;;;;;;;;3.00;3.00;;;;;;;;5037988;28;45458;-68
2022/10/05 12:16:02;;;;;;;;;3.00;2.00;;;;;;;;5037472;28;45375;-69
2022/10/05 12:18:31;;;;;;;;;2.50;2.50;;;;;;;;5031884;28;45357;-69
2022/10/05 12:21:00;;;;;;;;;3.00;3.00;;;;;;;;5035753;28;45458;-69
2022/10/05 12:23:32;;;;;;;;;4.75;3.00;;;;;;;;5033710;28;45700;-69
2022/10/05 12:26:13;;;;;;;;;5.75;3.00;;;;;;;;5032386;28;45479;-69
2022/10/05 12:28:57;;;;;;;;;4.00;4.00;;;;;;;;5027792;28;45380;-69
2022/10/05 12:31:28;;;;;;;;;2.50;1.50;;;;;;;;5036579;28;45401;-69
2022/10/05 12:33:54;;;;;;;;;1.50;1.50;;;;;;;;5036262;28;46145;-69
2022/10/05 12:36:22;;;;;;;;;2.00;2.00;;;;;;;;5027318;28;45278;-69
2022/10/05 12:38:47;;;;;;;;;1.25;1.25;;;;;;;;5036409;28;45477;-69
2022/10/05 12:41:27;;;;;;;;;2.00;2.00;;;;;;;;5037767;28;45236;-69
2022/10/05 12:44:21;;;;;;;;;2.75;2.75;;;;;;;;5025773;28;45502;-69
2022/10/05 12:46:54;;;;;;;;;3.00;2.50;;;;;;;;5016599;28;45568;-69
2022/10/05 12:49:42;;;;;;;;;3.00;3.00;;;;;;;;5036078;28;45462;-69
2022/10/05 12:52:25;;;;;;;;;2.50;2.50;;;;;;;;5032437;28;45976;-69
2022/10/05 12:54:59;;;;;;;;;5.25;4.00;;;;;;;;5033059;28;46216;-69
2022/10/05 12:57:30;;;;;;;;;3.25;2.00;;;;;;;;5038058;28;45865;-69
2022/10/05 13:00:04;;;;;;;;;1.25;1.00;;;;;;;;5038091;28;45501;-69
2022/10/05 13:02:32;;;;;;;;;3.00;2.50;;;;;;;;5037255;28;45533;-69
2022/10/05 13:04:58;;;;;;;;;3.00;2.00;;;;;;;;5038466;28;46099;-69
2022/10/05 13:07:32;;;;;;;;;2.25;2.00;;;;;;;;5033226;28;45703;-69
2022/10/05 13:10:33;;;;;;;;;2.25;2.25;;;;;;;;5034169;28;45628;-69
2022/10/05 13:13:14;;;;;;;;;2.00;2.00;;;;;;;;4951908;28;45582;-69
2022/10/05 13:15:45;;;;;;;;;2.50;2.25;;;;;;;;5028746;28;46041;-69
2022/10/05 13:18:11;;;;;;;;;4.25;2.25;;;;;;;;5038928;28;45350;-70
2022/10/05 13:20:55;;;;;;;;;3.25;3.25;;;;;;;;5037409;28;45371;-70
2022/10/05 13:23:33;;;;;;;;;5.00;3.00;;;;;;;;5034794;28;45569;-70
2022/10/05 13:26:06;;;;;;;;;2.00;2.00;;;;;;;;5030617;28;47116;-68
2022/10/05 13:28:40;;;;;;;;;2.00;2.00;;;;;;;;5039209;28;45535;-69
2022/10/05 13:31:10;;;;;;;;;1.75;1.75;;;;;;;;5038061;28;45319;-69
2022/10/05 13:33:57;;;;;;;;;2.75;2.75;;;;;;;;5033001;28;45490;-69
2022/10/05 13:36:28;;;;;;;;;3.25;3.25;;;;;;;;5033822;28;47052;-68
2022/10/05 13:38:57;;;;;;;;;3.75;3.75;;;;;;;;5039275;28;45392;-70
2022/10/05 13:41:42;;;;;;;;;4.00;3.00;;;;;;;;5039843;28;45404;-70
2022/10/05 13:44:14;;;;;;;;;3.00;3.00;;;;;;;;5039039;28;45658;-70
2022/10/05 13:46:55;;;;;;;;;5.50;5.50;;;;;;;;5032461;28;47028;-70
2022/10/05 13:49:25;;;;;;;;;2.00;2.00;;;;;;;;5025814;28;45896;-70
2022/10/05 13:52:00;;;;;;;;;3.00;3.00;;;;;;;;5032618;28;45490;-70
2022/10/05 13:54:44;;;;;;;;;5.00;4.00;;;;;;;;5028375;28;45497;-71
2022/10/05 13:57:28;;;;;;;;;4.00;4.00;;;;;;;;5036059;28;45402;-70
2022/10/05 13:59:58;;;;;;;;;2.00;2.00;;;;;;;;5036365;28;45498;-71
2022/10/05 14:02:34;;;;;;;;;7.50;3.50;;;;;;;;5031041;28;45482;-70
2022/10/05 14:05:01;;;;;;;;;2.75;2.25;;;;;;;;5027168;28;45488;-70
2022/10/05 14:07:30;;;;;;;;;4.50;4.50;;;;;;;;5038462;28;45592;-70
2022/10/05 14:09:56;;;;;;;;;5.00;5.00;;;;;;;;5039319;28;45442;-70
2022/10/05 14:12:22;;;;;;;;;2.25;2.25;;;;;;;;5040739;28;45717;-70
2022/10/05 14:14:49;;;;;;;;;4.25;2.50;;;;;;;;5040194;28;45565;-70
2022/10/05 14:17:16;;;;;;;;;5.50;4.00;;;;;;;;5038814;28;46214;-70
2022/10/05 14:19:46;;;;;;;;;4.00;4.00;;;;;;;;5040775;28;45434;-70
2022/10/05 14:22:13;;;;;;;;;5.00;3.50;;;;;;;;5040753;28;45510;-70
2022/10/05 14:24:51;;;;;;;;;5.50;5.50;;;;;;;;5040915;28;45728;-70
2022/10/05 14:27:18;;;;;;;;;3.50;3.50;;;;;;;;5040157;28;45415;-69
2022/10/05 14:29:51;;;;;;;;;4.25;3.50;;;;;;;;5040444;28;45430;-70
2022/10/05 14:32:21;;;;;;;;;5.00;3.00;;;;;;;;5040307;28;45368;-68
2022/10/05 14:34:58;;;;;;;;;4.00;4.00;;;;;;;;5039938;28;45593;-70
2022/10/05 14:37:31;;;;;;;;;4.50;4.50;;;;;;;;5039877;28;46912;-69
2022/10/05 14:40:00;;;;;;;;;13.50;6.25;;;;;;;;5039839;28;45276;-70
2022/10/05 14:42:39;;;;;;;;;3.25;3.25;;;;;;;;5040498;28;45635;-69
2022/10/05 14:45:12;;;;;;;;;5.50;4.00;;;;;;;;5039917;28;45426;-69
2022/10/05 14:47:47;;;;;;;;;4.75;4.75;;;;;;;;5024942;28;47029;-69
2022/10/05 14:50:24;;;;;;;;;8.25;5.25;;;;;;;;5037877;28;46370;-71
2022/10/05 14:53:09;;;;;;;;;6.00;5.25;;;;;;;;5034278;28;45186;-69
2022/10/05 14:55:49;;;;;;;;;6.25;4.00;;;;;;;;5034205;28;45229;-69
2022/10/05 14:58:17;;;;;;;;;3.50;3.50;;;;;;;;5039077;28;45517;-69
2022/10/05 15:00:52;;;;;;;;;4.50;3.25;;;;;;;;5034738;28;45458;-69
2022/10/05 15:03:40;;;;;;;;;6.67;6.67;;;;;;;;5037668;28;45229;-69
2022/10/05 15:06:12;;;;;;;;;5.00;5.00;;;;;;;;5005263;28;45425;-69
2022/10/05 15:08:56;;;;;;;;;6.00;6.00;;;;;;;;5034019;28;45309;-69
2022/10/05 15:11:27;;;;;;;;;5.00;4.25;;;;;;;;5033229;28;45501;-69
2022/10/05 15:13:54;;;;;;;;;8.67;7.00;;;;;;;;5030161;28;45332;-70
2022/10/05 15:16:25;;;;;;;;;4.00;4.00;;;;;;;;5039674;28;46466;-69
2022/10/05 15:18:50;;;;;;;;;6.00;6.00;;;;;;;;5032714;28;45427;-69
2022/10/05 15:21:27;;;;;;;;;5.00;5.00;;;;;;;;5029705;28;45284;-69
2022/10/05 15:23:56;;;;;;;;;5.67;5.67;;;;;;;;5031707;28;45395;-69
2022/10/05 15:26:36;;;;;;;;;6.00;4.33;;;;;;;;5038800;28;45547;-69
2022/10/05 15:29:13;;;;;;;;;5.00;5.00;;;;;;;;5030908;28;45468;-69
2022/10/05 15:31:48;;;;;;;;;5.50;5.50;;;;;;;;5035102;28;45480;-69
2022/10/05 15:34:24;;;;;;;;;5.25;3.50;;;;;;;;5020268;28;45534;-69
2022/10/05 15:37:15;;;;;;;;;6.00;6.00;;;;;;;;5038664;28;45320;-69
2022/10/05 15:40:02;;;;;;;;;6.00;5.00;;;;;;;;4998028;28;46478;-69
2022/10/05 15:42:37;;;;;;;;;4.67;4.67;;;;;;;;5034013;28;45482;-69
2022/10/05 15:45:09;;;;;;;;;7.00;5.00;;;;;;;;5037675;28;45518;-70
2022/10/05 15:47:50;;;;;;;;;5.75;4.00;;;;;;;;5025361;28;45368;-70
2022/10/05 15:50:21;;;;;;;;;8.25;6.25;;;;;;;;5035478;28;46377;-69
2022/10/05 15:53:01;;;;;;;;;6.00;5.25;;;;;;;;5038244;28;45285;-69
2022/10/05 15:55:45;;;;;;;;;4.50;4.25;;;;;;;;5029336;28;45277;-69
2022/10/05 15:58:10;;;;;;;;;4.75;4.00;;;;;;;;5033253;28;45392;-69
2022/10/05 16:00:41;;;;;;;;;5.75;5.25;;;;;;;;5038655;28;45468;-69
2022/10/05 16:03:25;;;;;;;;;10.67;6.67;;;;;;;;5038222;28;45393;-70
2022/10/05 16:08:49;;;;;;;;;8.00;6.00;;;;;;;;5033449;28;45533;-70
2022/10/05 16:11:20;;;;;;;;;8.00;5.00;;;;;;;;5032839;28;46135;-69
2022/10/05 16:13:53;;;;;;;;;6.00;6.00;;;;;;;;5027913;28;45264;-70
2022/10/05 16:16:36;;;;;;;;;5.25;4.50;;;;;;;;5032969;28;45445;-69
2022/10/05 16:19:16;;;;;;;;;6.75;5.25;;;;;;;;5038090;28;45440;-69
2022/10/05 16:21:43;;;;;;;;;6.25;6.25;;;;;;;;5007953;28;46198;-70
2022/10/05 16:24:38;;;;;;;;;10.33;8.33;;;;;;;;5019621;28;46062;-67
2022/10/05 16:27:09;;;;;;;;;8.33;6.00;;;;;;;;5031744;28;48580;-67
2022/10/05 16:29:51;;;;;;;;;5.00;5.00;;;;;;;;5033214;28;45518;-70
2022/10/05 16:32:17;;;;;;;;;8.33;8.00;;;;;;;;5033527;28;47029;-67
2022/10/05 16:34:58;;;;;;;;;9.67;7.33;;;;;;;;5035521;28;45450;-72
2022/10/05 16:37:29;;;;;;;;;6.67;6.67;;;;;;;;5036535;28;45530;-72
2022/10/05 16:39:57;;;;;;;;;6.00;6.00;;;;;;;;5034308;28;45698;-73
2022/10/05 16:42:25;;;;;;;;;6.25;6.25;;;;;;;;5032209;28;45979;-71
2022/10/05 16:45:05;;;;;;;;;6.00;6.00;;;;;;;;5032561;28;45478;-71
2022/10/05 16:47:34;;;;;;;;;7.33;5.67;;;;;;;;5035859;28;45332;-71
2022/10/05 16:50:11;;;;;;;;;7.33;6.33;;;;;;;;5034115;28;45467;-72
2022/10/05 16:52:38;;;;;;;;;8.00;8.00;;;;;;;;5033248;28;45499;-71
2022/10/05 16:55:10;;;;;;;;;6.00;6.00;;;;;;;;5028324;28;45272;-72
2022/10/05 16:57:42;;;;;;;;;9.67;7.67;;;;;;;;5034775;28;45447;-72
2022/10/05 17:00:20;;;;;;;;;8.67;6.00;;;;;;;;5028082;28;45730;-72
2022/10/05 17:02:57;;;;;;;;;5.33;4.00;;;;;;;;5034705;28;46230;-72
2022/10/05 17:05:41;;;;;;;;;6.00;6.00;;;;;;;;5029550;28;45504;-71
2022/10/05 17:08:25;;;;;;;;;6.50;6.00;;;;;;;;5030544;28;45593;-71
2022/10/05 17:10:53;;;;;;;;;7.50;7.00;;;;;;;;5032917;28;45419;-73
2022/10/05 17:13:36;;;;;;;;;7.33;7.33;;;;;;;;5036377;28;45169;-73
2022/10/05 17:16:02;;;;;;;;;7.00;7.00;;;;;;;;5035165;28;45432;-71
2022/10/05 17:18:48;;;;;;;;;6.67;6.33;;;;;;;;5035111;28;45502;-71
2022/10/05 17:21:36;;;;;;;;;7.67;7.67;;;;;;;;5029839;28;45289;-71
2022/10/05 17:24:16;;;;;;;;;9.67;7.67;;;;;;;;5025683;28;46199;-72
2022/10/05 17:26:56;;;;;;;;;10.33;9.33;;;;;;;;5034796;28;45530;-72
2022/10/05 17:29:23;;;;;;;;;8.33;8.33;;;;;;;;5034017;28;45450;-74
2022/10/05 17:32:00;;;;;;;;;6.67;6.67;;;;;;;;5030360;28;45581;-73
2022/10/05 17:34:29;;;;;;;;;6.33;6.33;;;;;;;;5031787;28;46241;-73
2022/10/05 17:37:16;;;;;;;;;6.00;6.00;;;;;;;;5032654;28;45403;-71
2022/10/05 17:39:44;;;;;;;;;7.67;7.67;;;;;;;;5033320;28;45525;-71
2022/10/05 17:42:24;;;;;;;;;7.00;7.00;;;;;;;;5040009;28;45296;-67
2022/10/05 17:44:53;;;;;;;;;8.33;8.33;;;;;;;;5036148;28;46320;-67
2022/10/05 17:47:38;;;;;;;;;13.67;9.33;;;;;;;;5038874;28;45493;-66
2022/10/05 17:56:02;;;;;;;;;8.67;8.00;;;;;;;;5039903;28;45303;-67
2022/10/05 17:58:30;;;;;;;;;8.00;8.00;;;;;;;;5038808;28;45455;-66
2022/10/05 18:00:55;;;;;;;;;12.33;9.33;;;;;;;;5038448;28;45450;-67
2022/10/05 18:03:39;;;;;;;;;10.67;7.33;;;;;;;;5040835;28;45420;-67
2022/10/05 18:06:23;;;;;;;;;10.00;9.00;;;;;;;;5025364;28;47404;-67
2022/10/05 18:08:49;;;;;;;;;10.33;7.00;;;;;;;;5030547;28;45521;-67
2022/10/05 18:11:35;;;;;;;;;10.67;7.00;;;;;;;;5040945;28;45217;-67
2022/10/05 18:14:14;;;;;;;;;9.00;9.00;;;;;;;;5035650;28;45472;-67
2022/10/05 18:16:56;;;;;;;;;7.33;7.33;;;;;;;;5040556;28;45317;-67
2022/10/05 18:19:22;;;;;;;;;7.00;7.00;;;;;;;;5032615;28;45512;-67
2022/10/05 18:21:59;;;;;;;;;10.00;7.67;;;;;;;;5039681;28;45277;-66
2022/10/05 18:24:35;;;;;;;;;7.00;6.00;;;;;;;;5036364;28;45463;-67
2022/10/05 18:27:23;;;;;;;;;7.00;7.00;;;;;;;;5035729;28;46368;-66
2022/10/05 18:30:07;;;;;;;;;6.67;6.67;;;;;;;;5031478;28;45527;-66
2022/10/05 18:32:41;;;;;;;;;6.33;6.33;;;;;;;;5032129;28;46625;-61
2022/10/05 18:35:22;;;;;;;;;5.33;5.00;;;;;;;;5028543;28;45902;-61
2022/10/05 18:37:47;;;;;;;;;6.00;6.00;;;;;;;;5038392;28;45339;-62
2022/10/05 18:40:33;;;;;;;;;9.67;6.67;;;;;;;;5039045;28;45268;-61
2022/10/05 18:43:31;;;;;;;;;8.67;8.67;;;;;;;;5037098;28;45807;-61
2022/10/05 18:46:00;;;;;;;;;5.50;5.50;;;;;;;;4977862;28;45590;-61
2022/10/05 18:48:25;;;;;;;;;5.00;5.00;;;;;;;;5036834;28;47135;-61
2022/10/05 18:51:05;;;;;;;;;2.00;2.00;;;;;;;;5038203;28;45314;-62
2022/10/05 18:53:59;;;;;;;;;0.00;0.00;;;;;;;;5038936;28;45350;-60
2022/10/05 18:56:32;;;;;;;;;0.00;0.00;;;;;;;;5036177;28;45325;-61
2022/10/05 18:59:17;;;;;;;;;0.00;0.00;;;;;;;;5038569;28;45679;-61
2022/10/05 19:01:54;;;;;;;;;1.00;0.00;;;;;;;;5029001;28;45328;-63
2022/10/05 19:04:38;;;;;;;;;0.00;0.00;;;;;;;;5034690;28;45361;-61
2022/10/05 19:07:04;;;;;;;;;0.00;0.00;;;;;;;;5029534;28;45600;-62
2022/10/05 19:09:48;;;;;;;;;0.00;0.00;;;;;;;;5037185;28;45332;-61
2022/10/05 19:12:28;;;;;;;;;0.00;0.00;;;;;;;;5039490;28;45254;-62
2022/10/05 19:15:06;;;;;;;;;0.00;0.00;;;;;;;;5020776;28;45792;-62
2022/10/05 19:17:37;;;;;;;;;0.00;0.00;;;;;;;;5016126;28;45459;-62
2022/10/05 19:20:02;;;;;;;;;0.00;0.00;;;;;;;;5026517;28;45362;-62
2022/10/05 19:22:37;;;;;;;;;0.50;0.00;;;;;;;;5035825;28;45571;-62
2022/10/05 19:25:31;;;;;;;;;0.00;0.00;;;;;;;;5032848;28;45652;-62
2022/10/05 19:28:11;;;;;;;;;0.00;0.00;;;;;;;;4952439;28;45403;-62
2022/10/05 19:30:46;;;;;;;;;0.00;0.00;;;;;;;;5035275;28;45335;-62
2022/10/05 19:33:24;;;;;;;;;1.00;1.00;;;;;;;;5036245;28;45661;-62
2022/10/05 19:36:08;;;;;;;;;0.00;0.00;;;;;;;;5036778;28;45482;-62
2022/10/05 19:38:42;;;;;;;;;0.75;0.75;;;;;;;;5038479;28;45543;-62
2022/10/05 19:41:10;;;;;;;;;2.00;1.00;;;;;;;;5036147;28;45770;-62
2022/10/05 19:44:01;;;;;;;;;2.50;2.50;;;;;;;;5032908;28;45340;-62
2022/10/05 19:46:26;;;;;;;;;2.00;0.50;;;;;;;;5031307;28;45465;-62
2022/10/05 19:48:52;;;;;;;;;2.25;1.25;;;;;;;;5036904;28;45316;-62
2022/10/05 19:51:27;;;;;;;;;0.00;0.00;;;;;;;;5026982;28;45441;-62
2022/10/05 19:53:54;;;;;;;;;6.25;1.50;;;;;;;;5033107;28;45702;-62
2022/10/05 19:56:20;;;;;;;;;0.00;0.00;;;;;;;;5031340;28;45227;-62
2022/10/05 19:58:45;;;;;;;;;1.00;1.00;;;;;;;;5016676;28;45979;-62
2022/10/05 20:01:11;;;;;;;;;2.75;2.75;;;;;;;;5016037;28;45862;-62
2022/10/05 20:03:36;;;;;;;;;2.00;2.00;;;;;;;;5032657;28;45436;-62
2022/10/05 20:06:06;;;;;;;;;1.00;1.00;;;;;;;;5011209;28;45952;-62
2022/10/05 20:08:42;;;;;;;;;0.75;0.75;;;;;;;;5028937;28;45525;-61